Richville, Oklahoma
Current Conditions -  °F | °C
As of 11:53 AM on Thursday 30 Oct 2014 (Local Time) from KMLC Reporting Station
Broken Clouds Broken Clouds  
Wind Chill: 70°   Ceiling: 11000
Heat Index: 70°   Visibility: 10mi
Dew Point: 45°   Wind: 14mph
Humidity: 41%   Direction: 220°SW
Pressure: 30.14"   Gusts: 20mph
Location:  34.9351°N, 95.8929°W
Report Text: KMLC 301653Z AUTO 22012G17KT 10SM SCT090 BKN110 21/07 A3014 RMK AO2 RAB13E38 SLP201 P0000 T02110072
Loading
Personal Weather Stations






























Interactive Weather Map
Tropical Storm Tracking
New forecast layout! Learn more

10-Day Weather Forecast

Advertisements
Track Severe Weather on mobile